sensor_id;sensor_type;location;lat;lon;timestamp;temperature;humidity
40808;DHT22;26523;52.504;13.498;2023-04-25T00:01:18;9.30;99.90
40808;DHT22;26523;52.504;13.498;2023-04-25T00:03:44;9.10;99.90
40808;DHT22;26523;52.504;13.498;2023-04-25T00:06:10;8.90;99.90
40808;DHT22;26523;52.504;13.498;2023-04-25T00:08:36;8.80;99.90
40808;DHT22;26523;52.504;13.498;2023-04-25T00:11:02;8.80;99.90
40808;DHT22;26523;52.504;13.498;2023-04-25T00:13:27;8.80;99.90
40808;DHT22;26523;52.504;13.498;2023-04-25T00:15:53;8.80;99.90
40808;DHT22;26523;52.504;13.498;2023-04-25T00:18:19;8.80;99.90
40808;DHT22;26523;52.504;13.498;2023-04-25T00:20:45;8.70;99.90
40808;DHT22;26523;52.504;13.498;2023-04-25T00:23:21;8.80;99.90
40808;DHT22;26523;52.504;13.498;2023-04-25T00:25:49;8.80;99.90
40808;DHT22;26523;52.504;13.498;2023-04-25T00:28:15;8.90;99.90
40808;DHT22;26523;52.504;13.498;2023-04-25T00:30:41;8.90;99.90
40808;DHT22;26523;52.504;13.498;2023-04-25T00:33:08;8.90;99.90
40808;DHT22;26523;52.504;13.498;2023-04-25T00:35:34;8.90;99.90
40808;DHT22;26523;52.504;13.498;2023-04-25T00:38:00;8.90;99.90
40808;DHT22;26523;52.504;13.498;2023-04-25T00:40:27;9.00;99.90
40808;DHT22;26523;52.504;13.498;2023-04-25T00:42:53;9.00;99.90
40808;DHT22;26523;52.504;13.498;2023-04-25T00:45:19;9.00;99.90
40808;DHT22;26523;52.504;13.498;2023-04-25T00:47:45;9.00;99.90
40808;DHT22;26523;52.504;13.498;2023-04-25T00:50:12;9.00;99.90
40808;DHT22;26523;52.504;13.498;2023-04-25T00:52:43;9.00;99.90
40808;DHT22;26523;52.504;13.498;2023-04-25T00:55:10;9.00;99.90
40808;DHT22;26523;52.504;13.498;2023-04-25T00:57:36;8.90;99.90
40808;DHT22;26523;52.504;13.498;2023-04-25T01:00:04;8.90;99.90
40808;DHT22;26523;52.504;13.498;2023-04-25T01:02:32;8.90;99.90
40808;DHT22;26523;52.504;13.498;2023-04-25T01:04:58;8.90;99.90
40808;DHT22;26523;52.504;13.498;2023-04-25T01:07:24;8.90;99.90
40808;DHT22;26523;52.504;13.498;2023-04-25T01:09:54;8.90;99.90
40808;DHT22;26523;52.504;13.498;2023-04-25T01:12:20;9.00;99.90
40808;DHT22;26523;52.504;13.498;2023-04-25T01:14:46;9.00;99.90
40808;DHT22;26523;52.504;13.498;2023-04-25T01:17:12;9.00;99.90
40808;DHT22;26523;52.504;13.498;2023-04-25T01:19:38;9.00;99.90
40808;DHT22;26523;52.504;13.498;2023-04-25T01:22:04;9.00;99.90
40808;DHT22;26523;52.504;13.498;2023-04-25T01:24:31;8.90;99.90
40808;DHT22;26523;52.504;13.498;2023-04-25T01:26:58;9.00;99.90
40808;DHT22;26523;52.504;13.498;2023-04-25T01:29:26;9.00;99.90
40808;DHT22;26523;52.504;13.498;2023-04-25T01:31:52;9.00;99.90
40808;DHT22;26523;52.504;13.498;2023-04-25T01:34:18;9.10;99.90
40808;DHT22;26523;52.504;13.498;2023-04-25T01:36:45;9.00;99.90
40808;DHT22;26523;52.504;13.498;2023-04-25T01:39:12;9.00;99.90
40808;DHT22;26523;52.504;13.498;2023-04-25T01:41:38;9.00;99.90
40808;DHT22;26523;52.504;13.498;2023-04-25T01:44:04;9.10;99.90
40808;DHT22;26523;52.504;13.498;2023-04-25T01:46:30;9.10;99.90
40808;DHT22;26523;52.504;13.498;2023-04-25T01:48:56;9.20;99.90
40808;DHT22;26523;52.504;13.498;2023-04-25T01:51:21;9.10;99.90
40808;DHT22;26523;52.504;13.498;2023-04-25T01:53:47;9.10;99.90
40808;DHT22;26523;52.504;13.498;2023-04-25T01:56:13;9.20;99.90
40808;DHT22;26523;52.504;13.498;2023-04-25T01:58:38;9.20;99.90
40808;DHT22;26523;52.504;13.498;2023-04-25T02:01:04;9.10;99.90
40808;DHT22;26523;52.504;13.498;2023-04-25T02:03:31;9.10;99.90
40808;DHT22;26523;52.504;13.498;2023-04-25T02:05:57;9.20;99.90
40808;DHT22;26523;52.504;13.498;2023-04-25T02:08:22;9.10;99.90
40808;DHT22;26523;52.504;13.498;2023-04-25T02:10:48;9.10;99.90
40808;DHT22;26523;52.504;13.498;2023-04-25T02:13:14;9.10;99.90
40808;DHT22;26523;52.504;13.498;2023-04-25T02:15:39;9.10;99.90
40808;DHT22;26523;52.504;13.498;2023-04-25T02:18:06;9.10;99.90
40808;DHT22;26523;52.504;13.498;2023-04-25T02:20:32;9.20;99.90
40808;DHT22;26523;52.504;13.498;2023-04-25T02:22:58;9.20;99.90
40808;DHT22;26523;52.504;13.498;2023-04-25T02:25:23;9.20;99.90
40808;DHT22;26523;52.504;13.498;2023-04-25T02:27:49;9.20;99.90
40808;DHT22;26523;52.504;13.498;2023-04-25T02:30:16;9.20;99.90
40808;DHT22;26523;52.504;13.498;2023-04-25T02:32:42;9.20;99.90
40808;DHT22;26523;52.504;13.498;2023-04-25T02:35:08;9.20;99.90
40808;DHT22;26523;52.504;13.498;2023-04-25T02:37:36;9.20;99.90
40808;DHT22;26523;52.504;13.498;2023-04-25T02:40:01;9.20;99.90
40808;DHT22;26523;52.504;13.498;2023-04-25T02:42:28;9.20;99.90
40808;DHT22;26523;52.504;13.498;2023-04-25T02:44:54;9.20;99.90
40808;DHT22;26523;52.504;13.498;2023-04-25T02:47:20;9.20;99.90
40808;DHT22;26523;52.504;13.498;2023-04-25T02:49:46;9.20;99.90
40808;DHT22;26523;52.504;13.498;2023-04-25T02:52:12;9.20;99.90
40808;DHT22;26523;52.504;13.498;2023-04-25T02:54:38;9.20;99.90
40808;DHT22;26523;52.504;13.498;2023-04-25T02:57:04;9.20;99.90
40808;DHT22;26523;52.504;13.498;2023-04-25T02:59:30;9.20;99.90
40808;DHT22;26523;52.504;13.498;2023-04-25T03:01:55;9.20;99.90
40808;DHT22;26523;52.504;13.498;2023-04-25T03:04:21;9.20;99.90
40808;DHT22;26523;52.504;13.498;2023-04-25T03:06:49;9.20;99.90
40808;DHT22;26523;52.504;13.498;2023-04-25T03:09:15;9.10;99.90
40808;DHT22;26523;52.504;13.498;2023-04-25T03:11:41;9.10;99.90
40808;DHT22;26523;52.504;13.498;2023-04-25T03:14:07;9.10;99.90
40808;DHT22;26523;52.504;13.498;2023-04-25T03:16:33;9.00;99.90
40808;DHT22;26523;52.504;13.498;2023-04-25T03:18:59;9.00;99.90
40808;DHT22;26523;52.504;13.498;2023-04-25T03:21:25;9.10;99.90
40808;DHT22;26523;52.504;13.498;2023-04-25T03:23:51;9.10;99.90
40808;DHT22;26523;52.504;13.498;2023-04-25T03:26:17;9.10;99.90
40808;DHT22;26523;52.504;13.498;2023-04-25T03:28:43;9.10;99.90
40808;DHT22;26523;52.504;13.498;2023-04-25T03:31:08;9.10;99.90
40808;DHT22;26523;52.504;13.498;2023-04-25T03:33:34;9.10;99.90
40808;DHT22;26523;52.504;13.498;2023-04-25T03:36:00;9.10;99.90
40808;DHT22;26523;52.504;13.498;2023-04-25T03:38:25;9.10;99.90
40808;DHT22;26523;52.504;13.498;2023-04-25T03:40:51;9.00;99.90
40808;DHT22;26523;52.504;13.498;2023-04-25T03:43:17;9.20;99.90
40808;DHT22;26523;52.504;13.498;2023-04-25T03:45:43;9.10;99.90
40808;DHT22;26523;52.504;13.498;2023-04-25T03:48:08;9.20;99.90
40808;DHT22;26523;52.504;13.498;2023-04-25T03:50:34;9.10;99.90
40808;DHT22;26523;52.504;13.498;2023-04-25T03:53:00;9.10;99.90
40808;DHT22;26523;52.504;13.498;2023-04-25T03:55:25;9.10;99.90
40808;DHT22;26523;52.504;13.498;2023-04-25T03:57:51;9.10;99.90
40808;DHT22;26523;52.504;13.498;2023-04-25T04:00:17;9.00;99.90
40808;DHT22;26523;52.504;13.498;2023-04-25T04:02:43;9.00;99.90
40808;DHT22;26523;52.504;13.498;2023-04-25T04:05:09;9.00;99.90
40808;DHT22;26523;52.504;13.498;2023-04-25T04:07:34;9.00;99.90
40808;DHT22;26523;52.504;13.498;2023-04-25T04:10:09;9.00;99.90
40808;DHT22;26523;52.504;13.498;2023-04-25T04:12:34;9.00;99.90
40808;DHT22;26523;52.504;13.498;2023-04-25T04:15:04;9.10;99.90
40808;DHT22;26523;52.504;13.498;2023-04-25T04:17:30;9.10;99.90
40808;DHT22;26523;52.504;13.498;2023-04-25T04:19:56;9.10;99.90
40808;DHT22;26523;52.504;13.498;2023-04-25T04:22:22;9.10;99.90
40808;DHT22;26523;52.504;13.498;2023-04-25T04:24:48;9.10;99.90
40808;DHT22;26523;52.504;13.498;2023-04-25T04:27:15;9.10;99.90
40808;DHT22;26523;52.504;13.498;2023-04-25T04:29:42;9.00;99.90
40808;DHT22;26523;52.504;13.498;2023-04-25T04:32:08;9.00;99.90
40808;DHT22;26523;52.504;13.498;2023-04-25T04:34:34;9.00;99.90
40808;DHT22;26523;52.504;13.498;2023-04-25T04:37:00;9.10;99.90
40808;DHT22;26523;52.504;13.498;2023-04-25T04:39:26;9.20;99.90
40808;DHT22;26523;52.504;13.498;2023-04-25T04:41:52;9.10;99.90
40808;DHT22;26523;52.504;13.498;2023-04-25T04:44:17;9.20;99.90
40808;DHT22;26523;52.504;13.498;2023-04-25T04:46:43;9.20;99.90
40808;DHT22;26523;52.504;13.498;2023-04-25T04:49:10;9.20;99.90
40808;DHT22;26523;52.504;13.498;2023-04-25T04:51:36;9.20;99.90
40808;DHT22;26523;52.504;13.498;2023-04-25T04:54:03;9.30;99.90
40808;DHT22;26523;52.504;13.498;2023-04-25T04:56:29;9.30;99.90
40808;DHT22;26523;52.504;13.498;2023-04-25T04:58:57;9.30;99.90
40808;DHT22;26523;52.504;13.498;2023-04-25T05:01:23;9.30;99.90
40808;DHT22;26523;52.504;13.498;2023-04-25T05:03:49;9.30;99.90
40808;DHT22;26523;52.504;13.498;2023-04-25T05:06:16;9.30;99.90
40808;DHT22;26523;52.504;13.498;2023-04-25T05:08:41;9.30;99.90
40808;DHT22;26523;52.504;13.498;2023-04-25T05:11:07;9.40;99.90
40808;DHT22;26523;52.504;13.498;2023-04-25T05:13:33;9.40;99.90
40808;DHT22;26523;52.504;13.498;2023-04-25T05:15:58;9.40;99.90
40808;DHT22;26523;52.504;13.498;2023-04-25T05:18:24;9.40;99.90
40808;DHT22;26523;52.504;13.498;2023-04-25T05:20:50;9.40;99.90
40808;DHT22;26523;52.504;13.498;2023-04-25T05:23:16;9.40;99.90
40808;DHT22;26523;52.504;13.498;2023-04-25T05:25:41;9.40;99.90
40808;DHT22;26523;52.504;13.498;2023-04-25T05:28:07;9.40;99.90
40808;DHT22;26523;52.504;13.498;2023-04-25T05:30:35;9.40;99.90
40808;DHT22;26523;52.504;13.498;2023-04-25T05:33:00;9.40;99.90
40808;DHT22;26523;52.504;13.498;2023-04-25T05:35:27;9.40;99.90
40808;DHT22;26523;52.504;13.498;2023-04-25T05:37:52;9.40;99.90
40808;DHT22;26523;52.504;13.498;2023-04-25T05:40:18;9.30;99.90
40808;DHT22;26523;52.504;13.498;2023-04-25T05:42:43;9.30;99.90
40808;DHT22;26523;52.504;13.498;2023-04-25T05:45:09;9.40;99.90
40808;DHT22;26523;52.504;13.498;2023-04-25T05:47:35;9.30;99.90
40808;DHT22;26523;52.504;13.498;2023-04-25T05:50:01;9.40;99.90
40808;DHT22;26523;52.504;13.498;2023-04-25T05:52:27;9.50;99.90
40808;DHT22;26523;52.504;13.498;2023-04-25T05:54:53;9.50;99.90
40808;DHT22;26523;52.504;13.498;2023-04-25T05:57:26;9.50;99.90
40808;DHT22;26523;52.504;13.498;2023-04-25T05:59:52;9.50;99.90
40808;DHT22;26523;52.504;13.498;2023-04-25T06:02:19;9.60;99.90
40808;DHT22;26523;52.504;13.498;2023-04-25T06:04:46;9.60;99.90
40808;DHT22;26523;52.504;13.498;2023-04-25T06:07:12;9.60;99.90
40808;DHT22;26523;52.504;13.498;2023-04-25T06:09:38;9.60;99.90
40808;DHT22;26523;52.504;13.498;2023-04-25T06:12:05;9.60;99.90
40808;DHT22;26523;52.504;13.498;2023-04-25T06:14:31;9.60;99.90
40808;DHT22;26523;52.504;13.498;2023-04-25T06:16:57;9.50;99.90
40808;DHT22;26523;52.504;13.498;2023-04-25T06:19:24;9.60;99.90
40808;DHT22;26523;52.504;13.498;2023-04-25T06:21:50;9.50;99.90
40808;DHT22;26523;52.504;13.498;2023-04-25T06:24:16;9.50;99.90
40808;DHT22;26523;52.504;13.498;2023-04-25T06:26:41;9.40;99.90
40808;DHT22;26523;52.504;13.498;2023-04-25T06:29:07;9.50;99.90
40808;DHT22;26523;52.504;13.498;2023-04-25T06:31:33;9.60;99.90
40808;DHT22;26523;52.504;13.498;2023-04-25T06:33:59;9.70;99.90
40808;DHT22;26523;52.504;13.498;2023-04-25T06:36:25;9.80;99.90
40808;DHT22;26523;52.504;13.498;2023-04-25T06:38:53;9.90;99.90
40808;DHT22;26523;52.504;13.498;2023-04-25T06:41:18;9.90;99.90
40808;DHT22;26523;52.504;13.498;2023-04-25T06:43:45;10.00;99.90
40808;DHT22;26523;52.504;13.498;2023-04-25T06:46:11;10.00;99.90
40808;DHT22;26523;52.504;13.498;2023-04-25T06:48:36;10.00;99.90
40808;DHT22;26523;52.504;13.498;2023-04-25T06:51:02;10.00;99.90
40808;DHT22;26523;52.504;13.498;2023-04-25T06:53:28;10.00;99.90
40808;DHT22;26523;52.504;13.498;2023-04-25T06:55:54;10.00;99.90
40808;DHT22;26523;52.504;13.498;2023-04-25T06:58:20;10.00;99.90
40808;DHT22;26523;52.504;13.498;2023-04-25T07:00:45;9.90;99.90
40808;DHT22;26523;52.504;13.498;2023-04-25T07:03:11;10.00;99.90
40808;DHT22;26523;52.504;13.498;2023-04-25T07:05:37;10.10;99.90
40808;DHT22;26523;52.504;13.498;2023-04-25T07:11:47;10.10;99.90
40808;DHT22;26523;52.504;13.498;2023-04-25T07:23:32;10.20;99.90
40808;DHT22;26523;52.504;13.498;2023-04-25T07:25:58;10.20;99.90
40808;DHT22;26523;52.504;13.498;2023-04-25T07:28:27;10.20;99.90
40808;DHT22;26523;52.504;13.498;2023-04-25T07:30:52;10.20;99.90
40808;DHT22;26523;52.504;13.498;2023-04-25T07:40:03;9.90;99.90
40808;DHT22;26523;52.504;13.498;2023-04-25T07:42:29;10.00;99.90
40808;DHT22;26523;52.504;13.498;2023-04-25T07:44:55;10.00;99.90
40808;DHT22;26523;52.504;13.498;2023-04-25T08:00:50;10.60;99.90
40808;DHT22;26523;52.504;13.498;2023-04-25T08:03:15;10.70;99.90
40808;DHT22;26523;52.504;13.498;2023-04-25T08:05:41;10.70;99.90
40808;DHT22;26523;52.504;13.498;2023-04-25T08:08:07;10.80;99.90
40808;DHT22;26523;52.504;13.498;2023-04-25T08:10:33;10.80;99.90
40808;DHT22;26523;52.504;13.498;2023-04-25T08:12:59;10.70;99.90
40808;DHT22;26523;52.504;13.498;2023-04-25T08:15:25;10.50;99.90
40808;DHT22;26523;52.504;13.498;2023-04-25T08:24:35;10.70;99.90
40808;DHT22;26523;52.504;13.498;2023-04-25T08:27:01;11.10;99.90
40808;DHT22;26523;52.504;13.498;2023-04-25T08:29:27;11.30;99.90
40808;DHT22;26523;52.504;13.498;2023-04-25T08:31:53;11.30;99.90
40808;DHT22;26523;52.504;13.498;2023-04-25T08:44:25;11.80;99.90
40808;DHT22;26523;52.504;13.498;2023-04-25T08:46:52;12.20;99.90
40808;DHT22;26523;52.504;13.498;2023-04-25T08:49:18;12.40;99.90
40808;DHT22;26523;52.504;13.498;2023-04-25T08:55:07;12.50;99.90
40808;DHT22;26523;52.504;13.498;2023-04-25T09:04:50;12.30;98.20
40808;DHT22;26523;52.504;13.498;2023-04-25T09:07:16;12.60;97.60
40808;DHT22;26523;52.504;13.498;2023-04-25T09:09:46;13.50;96.10
40808;DHT22;26523;52.504;13.498;2023-04-25T09:12:12;14.00;95.10
40808;DHT22;26523;52.504;13.498;2023-04-25T09:14:38;14.40;93.90
40808;DHT22;26523;52.504;13.498;2023-04-25T09:17:04;14.50;93.10
40808;DHT22;26523;52.504;13.498;2023-04-25T09:19:35;14.90;92.20
40808;DHT22;26523;52.504;13.498;2023-04-25T09:22:03;15.40;91.10
40808;DHT22;26523;52.504;13.498;2023-04-25T09:24:36;16.90;88.30
40808;DHT22;26523;52.504;13.498;2023-04-25T09:27:13;18.40;82.30
40808;DHT22;26523;52.504;13.498;2023-04-25T09:29:43;18.70;77.60
40808;DHT22;26523;52.504;13.498;2023-04-25T09:32:22;18.60;77.20
40808;DHT22;26523;52.504;13.498;2023-04-25T09:41:37;17.10;76.10
40808;DHT22;26523;52.504;13.498;2023-04-25T09:44:04;16.30;76.90
40808;DHT22;26523;52.504;13.498;2023-04-25T09:46:34;16.00;78.50
40808;DHT22;26523;52.504;13.498;2023-04-25T09:49:07;15.60;78.90
40808;DHT22;26523;52.504;13.498;2023-04-25T09:51:32;15.80;79.40
40808;DHT22;26523;52.504;13.498;2023-04-25T09:53:58;15.70;79.50
40808;DHT22;26523;52.504;13.498;2023-04-25T09:56:24;15.70;79.20
40808;DHT22;26523;52.504;13.498;2023-04-25T09:58:52;15.70;78.80
40808;DHT22;26523;52.504;13.498;2023-04-25T10:01:20;15.50;78.70
40808;DHT22;26523;52.504;13.498;2023-04-25T10:03:48;15.00;78.30
40808;DHT22;26523;52.504;13.498;2023-04-25T10:06:19;14.50;77.70
40808;DHT22;26523;52.504;13.498;2023-04-25T10:08:45;14.20;77.60
40808;DHT22;26523;52.504;13.498;2023-04-25T10:11:14;14.00;78.60
40808;DHT22;26523;52.504;13.498;2023-04-25T10:13:41;14.00;78.50
40808;DHT22;26523;52.504;13.498;2023-04-25T10:16:08;14.00;78.10
40808;DHT22;26523;52.504;13.498;2023-04-25T10:18:33;13.70;78.70
40808;DHT22;26523;52.504;13.498;2023-04-25T10:21:01;13.90;78.00
40808;DHT22;26523;52.504;13.498;2023-04-25T10:23:29;14.10;77.50
40808;DHT22;26523;52.504;13.498;2023-04-25T10:25:55;14.30;77.30
40808;DHT22;26523;52.504;13.498;2023-04-25T10:28:22;14.20;76.80
40808;DHT22;26523;52.504;13.498;2023-04-25T10:31:04;14.00;77.20
40808;DHT22;26523;52.504;13.498;2023-04-25T10:33:38;14.10;77.20
40808;DHT22;26523;52.504;13.498;2023-04-25T10:36:19;14.10;76.30
40808;DHT22;26523;52.504;13.498;2023-04-25T10:38:47;13.80;76.20
40808;DHT22;26523;52.504;13.498;2023-04-25T10:41:14;13.80;80.70
40808;DHT22;26523;52.504;13.498;2023-04-25T10:43:43;13.90;81.80
40808;DHT22;26523;52.504;13.498;2023-04-25T10:46:22;14.20;81.00
40808;DHT22;26523;52.504;13.498;2023-04-25T10:52:39;14.20;79.10
40808;DHT22;26523;52.504;13.498;2023-04-25T10:55:06;13.80;78.90
40808;DHT22;26523;52.504;13.498;2023-04-25T10:57:45;13.70;79.50
40808;DHT22;26523;52.504;13.498;2023-04-25T11:00:19;13.70;79.80
40808;DHT22;26523;52.504;13.498;2023-04-25T11:02:58;13.70;78.80
40808;DHT22;26523;52.504;13.498;2023-04-25T11:05:35;13.50;79.20
40808;DHT22;26523;52.504;13.498;2023-04-25T11:08:01;13.40;80.60
40808;DHT22;26523;52.504;13.498;2023-04-25T11:10:32;13.30;80.00
40808;DHT22;26523;52.504;13.498;2023-04-25T11:13:01;13.50;80.10
40808;DHT22;26523;52.504;13.498;2023-04-25T11:15:27;13.60;78.80
40808;DHT22;26523;52.504;13.498;2023-04-25T11:17:53;13.90;79.50
40808;DHT22;26523;52.504;13.498;2023-04-25T11:27:00;14.00;78.10
40808;DHT22;26523;52.504;13.498;2023-04-25T11:29:30;13.60;77.70
40808;DHT22;26523;52.504;13.498;2023-04-25T11:31:57;13.10;79.00
40808;DHT22;26523;52.504;13.498;2023-04-25T11:41:10;12.20;82.20
40808;DHT22;26523;52.504;13.498;2023-04-25T11:43:37;12.00;81.50
40808;DHT22;26523;52.504;13.498;2023-04-25T11:46:06;12.00;80.50
40808;DHT22;26523;52.504;13.498;2023-04-25T11:48:40;12.00;79.00
40808;DHT22;26523;52.504;13.498;2023-04-25T11:51:06;11.90;78.00
40808;DHT22;26523;52.504;13.498;2023-04-25T11:53:32;11.70;78.00
40808;DHT22;26523;52.504;13.498;2023-04-25T11:55:57;11.80;77.70
40808;DHT22;26523;52.504;13.498;2023-04-25T11:58:23;11.90;77.50
40808;DHT22;26523;52.504;13.498;2023-04-25T12:00:49;12.10;77.10
40808;DHT22;26523;52.504;13.498;2023-04-25T12:03:14;12.20;76.70
40808;DHT22;26523;52.504;13.498;2023-04-25T12:05:40;12.30;75.60
40808;DHT22;26523;52.504;13.498;2023-04-25T12:08:10;12.30;76.20
40808;DHT22;26523;52.504;13.498;2023-04-25T12:10:38;12.50;75.40
40808;DHT22;26523;52.504;13.498;2023-04-25T12:13:23;12.50;75.60
40808;DHT22;26523;52.504;13.498;2023-04-25T12:15:49;12.50;75.80
40808;DHT22;26523;52.504;13.498;2023-04-25T12:18:19;12.50;76.40
40808;DHT22;26523;52.504;13.498;2023-04-25T12:20:44;12.60;76.20
40808;DHT22;26523;52.504;13.498;2023-04-25T12:23:10;12.50;76.30
40808;DHT22;26523;52.504;13.498;2023-04-25T12:25:40;12.70;76.10
40808;DHT22;26523;52.504;13.498;2023-04-25T12:28:18;12.70;76.50
40808;DHT22;26523;52.504;13.498;2023-04-25T12:30:57;12.50;77.20
40808;DHT22;26523;52.504;13.498;2023-04-25T12:37:03;12.40;76.60
40808;DHT22;26523;52.504;13.498;2023-04-25T12:39:28;12.60;76.20
40808;DHT22;26523;52.504;13.498;2023-04-25T12:41:54;12.90;73.50
40808;DHT22;26523;52.504;13.498;2023-04-25T12:54:26;13.50;73.00
40808;DHT22;26523;52.504;13.498;2023-04-25T12:56:52;13.60;72.50
40808;DHT22;26523;52.504;13.498;2023-04-25T13:06:03;13.20;74.00
40808;DHT22;26523;52.504;13.498;2023-04-25T13:12:21;13.30;74.00
40808;DHT22;26523;52.504;13.498;2023-04-25T13:14:46;13.40;71.90
40808;DHT22;26523;52.504;13.498;2023-04-25T13:23:57;13.40;72.50
40808;DHT22;26523;52.504;13.498;2023-04-25T13:26:23;13.10;72.00
40808;DHT22;26523;52.504;13.498;2023-04-25T13:28:48;12.80;72.30
40808;DHT22;26523;52.504;13.498;2023-04-25T13:35:07;12.30;73.50
40808;DHT22;26523;52.504;13.498;2023-04-25T13:37:33;12.30;75.20
40808;DHT22;26523;52.504;13.498;2023-04-25T13:40:00;12.50;75.30
40808;DHT22;26523;52.504;13.498;2023-04-25T13:42:26;12.50;76.00
40808;DHT22;26523;52.504;13.498;2023-04-25T13:44:51;12.40;75.90
40808;DHT22;26523;52.504;13.498;2023-04-25T13:47:17;12.40;76.00
40808;DHT22;26523;52.504;13.498;2023-04-25T13:49:43;12.40;76.60
40808;DHT22;26523;52.504;13.498;2023-04-25T13:52:08;12.50;76.50
40808;DHT22;26523;52.504;13.498;2023-04-25T13:54:34;12.50;77.00
40808;DHT22;26523;52.504;13.498;2023-04-25T13:56:59;12.70;76.30
40808;DHT22;26523;52.504;13.498;2023-04-25T13:59:25;12.70;76.20
40808;DHT22;26523;52.504;13.498;2023-04-25T14:01:51;12.70;76.30
40808;DHT22;26523;52.504;13.498;2023-04-25T14:04:17;12.40;76.40
40808;DHT22;26523;52.504;13.498;2023-04-25T14:06:43;12.40;77.10
40808;DHT22;26523;52.504;13.498;2023-04-25T14:09:08;12.60;76.90
40808;DHT22;26523;52.504;13.498;2023-04-25T14:11:36;12.70;77.10
40808;DHT22;26523;52.504;13.498;2023-04-25T14:14:02;12.70;76.90
40808;DHT22;26523;52.504;13.498;2023-04-25T14:16:29;12.60;76.80
40808;DHT22;26523;52.504;13.498;2023-04-25T14:18:55;12.60;77.50
40808;DHT22;26523;52.504;13.498;2023-04-25T14:21:21;12.50;78.00
40808;DHT22;26523;52.504;13.498;2023-04-25T14:23:47;12.30;78.10
40808;DHT22;26523;52.504;13.498;2023-04-25T14:32:46;11.90;78.00
40808;DHT22;26523;52.504;13.498;2023-04-25T14:35:12;11.70;77.90
40808;DHT22;26523;52.504;13.498;2023-04-25T14:37:37;11.80;78.60
40808;DHT22;26523;52.504;13.498;2023-04-25T14:46:47;11.60;78.10
40808;DHT22;26523;52.504;13.498;2023-04-25T14:49:13;11.80;78.60
40808;DHT22;26523;52.504;13.498;2023-04-25T14:51:38;12.10;78.40
40808;DHT22;26523;52.504;13.498;2023-04-25T14:54:04;12.20;77.80
40808;DHT22;26523;52.504;13.498;2023-04-25T15:03:14;12.20;78.50
40808;DHT22;26523;52.504;13.498;2023-04-25T15:05:43;12.00;79.80
40808;DHT22;26523;52.504;13.498;2023-04-25T15:14:53;11.30;82.60
40808;DHT22;26523;52.504;13.498;2023-04-25T15:17:18;11.20;83.40
40808;DHT22;26523;52.504;13.498;2023-04-25T15:19:44;11.10;83.40
40808;DHT22;26523;52.504;13.498;2023-04-25T15:22:10;11.00;84.30
40808;DHT22;26523;52.504;13.498;2023-04-25T15:24:36;11.00;84.20
40808;DHT22;26523;52.504;13.498;2023-04-25T15:27:02;11.00;84.30
40808;DHT22;26523;52.504;13.498;2023-04-25T15:29:28;11.00;84.40
40808;DHT22;26523;52.504;13.498;2023-04-25T15:31:54;11.10;83.90
40808;DHT22;26523;52.504;13.498;2023-04-25T15:38:17;11.20;82.30
40808;DHT22;26523;52.504;13.498;2023-04-25T15:40:43;11.30;82.30
40808;DHT22;26523;52.504;13.498;2023-04-25T15:43:09;11.50;81.60
40808;DHT22;26523;52.504;13.498;2023-04-25T15:45:40;11.60;80.30
40808;DHT22;26523;52.504;13.498;2023-04-25T15:48:06;11.60;79.90
40808;DHT22;26523;52.504;13.498;2023-04-25T15:57:13;11.40;79.90
40808;DHT22;26523;52.504;13.498;2023-04-25T15:59:40;11.40;80.70
40808;DHT22;26523;52.504;13.498;2023-04-25T16:02:06;11.30;81.10
40808;DHT22;26523;52.504;13.498;2023-04-25T16:04:32;11.20;81.80
40808;DHT22;26523;52.504;13.498;2023-04-25T16:07:00;11.20;81.70
40808;DHT22;26523;52.504;13.498;2023-04-25T16:09:28;11.10;82.30
40808;DHT22;26523;52.504;13.498;2023-04-25T16:11:54;10.90;82.40
40808;DHT22;26523;52.504;13.498;2023-04-25T16:14:20;10.90;83.20
40808;DHT22;26523;52.504;13.498;2023-04-25T16:16:46;10.90;82.10
40808;DHT22;26523;52.504;13.498;2023-04-25T16:19:11;10.90;82.70
40808;DHT22;26523;52.504;13.498;2023-04-25T16:21:37;10.90;82.20
40808;DHT22;26523;52.504;13.498;2023-04-25T16:24:03;10.80;81.10
40808;DHT22;26523;52.504;13.498;2023-04-25T16:26:29;10.80;79.80
40808;DHT22;26523;52.504;13.498;2023-04-25T16:28:54;10.80;79.10
40808;DHT22;26523;52.504;13.498;2023-04-25T16:31:20;10.80;78.90
40808;DHT22;26523;52.504;13.498;2023-04-25T16:33:46;10.80;79.00
40808;DHT22;26523;52.504;13.498;2023-04-25T16:36:11;10.80;79.90
40808;DHT22;26523;52.504;13.498;2023-04-25T16:38:38;10.70;79.10
40808;DHT22;26523;52.504;13.498;2023-04-25T16:41:04;10.70;80.10
40808;DHT22;26523;52.504;13.498;2023-04-25T16:43:30;10.70;80.60
40808;DHT22;26523;52.504;13.498;2023-04-25T16:45:57;10.70;79.40
40808;DHT22;26523;52.504;13.498;2023-04-25T16:48:22;10.70;78.30
40808;DHT22;26523;52.504;13.498;2023-04-25T16:50:53;10.60;79.10
40808;DHT22;26523;52.504;13.498;2023-04-25T16:53:19;10.50;79.30
40808;DHT22;26523;52.504;13.498;2023-04-25T16:55:46;10.50;79.30
40808;DHT22;26523;52.504;13.498;2023-04-25T16:58:12;10.50;79.90
40808;DHT22;26523;52.504;13.498;2023-04-25T17:00:39;10.50;80.00
40808;DHT22;26523;52.504;13.498;2023-04-25T17:03:06;10.40;80.00
40808;DHT22;26523;52.504;13.498;2023-04-25T17:40:14;9.60;84.10
40808;DHT22;26523;52.504;13.498;2023-04-25T17:42:40;9.50;84.50
40808;DHT22;26523;52.504;13.498;2023-04-25T18:08:42;8.80;88.50
40808;DHT22;26523;52.504;13.498;2023-04-25T18:11:09;8.80;89.50
40808;DHT22;26523;52.504;13.498;2023-04-25T18:13:34;8.70;89.30
40808;DHT22;26523;52.504;13.498;2023-04-25T18:16:01;8.70;89.30
40808;DHT22;26523;52.504;13.498;2023-04-25T18:18:27;8.80;89.50
40808;DHT22;26523;52.504;13.498;2023-04-25T18:20:59;8.70;89.40
40808;DHT22;26523;52.504;13.498;2023-04-25T18:23:28;8.70;90.00
40808;DHT22;26523;52.504;13.498;2023-04-25T18:25:53;8.60;90.10
40808;DHT22;26523;52.504;13.498;2023-04-25T18:28:19;8.70;90.40
40808;DHT22;26523;52.504;13.498;2023-04-25T18:30:47;8.70;90.30
40808;DHT22;26523;52.504;13.498;2023-04-25T18:33:14;8.70;90.40
40808;DHT22;26523;52.504;13.498;2023-04-25T18:35:40;8.70;90.40
40808;DHT22;26523;52.504;13.498;2023-04-25T18:38:06;8.60;90.50
40808;DHT22;26523;52.504;13.498;2023-04-25T18:40:31;8.60;90.80
40808;DHT22;26523;52.504;13.498;2023-04-25T18:42:57;8.50;91.90
40808;DHT22;26523;52.504;13.498;2023-04-25T18:45:23;8.60;92.20
40808;DHT22;26523;52.504;13.498;2023-04-25T18:47:49;8.50;92.20
40808;DHT22;26523;52.504;13.498;2023-04-25T18:50:15;8.40;92.40
40808;DHT22;26523;52.504;13.498;2023-04-25T18:52:44;8.40;92.80
40808;DHT22;26523;52.504;13.498;2023-04-25T18:55:10;8.30;92.90